sensor_id;sensor_type;location;lat;lon;timestamp;P1;durP1;ratioP1;P2;durP2;ratioP2
30515;SDS011;17297;54.022;10.760;2023-03-01T00:01:32;3.83;;;3.40;;
30515;SDS011;17297;54.022;10.760;2023-03-01T00:03:58;4.30;;;3.05;;
30515;SDS011;17297;54.022;10.760;2023-03-01T00:06:24;5.78;;;3.45;;
30515;SDS011;17297;54.022;10.760;2023-03-01T00:08:51;4.70;;;3.40;;
30515;SDS011;17297;54.022;10.760;2023-03-01T00:11:18;4.57;;;3.58;;
30515;SDS011;17297;54.022;10.760;2023-03-01T00:13:48;5.60;;;3.60;;
30515;SDS011;17297;54.022;10.760;2023-03-01T00:16:20;8.00;;;3.33;;
30515;SDS011;17297;54.022;10.760;2023-03-01T00:18:47;5.80;;;3.58;;
30515;SDS011;17297;54.022;10.760;2023-03-01T00:21:13;5.28;;;2.88;;
30515;SDS011;17297;54.022;10.760;2023-03-01T00:23:39;5.13;;;3.22;;
30515;SDS011;17297;54.022;10.760;2023-03-01T00:26:05;4.80;;;3.50;;
30515;SDS011;17297;54.022;10.760;2023-03-01T00:28:38;4.22;;;3.50;;
30515;SDS011;17297;54.022;10.760;2023-03-01T00:31:04;4.93;;;3.40;;
30515;SDS011;17297;54.022;10.760;2023-03-01T00:33:34;5.43;;;3.45;;
30515;SDS011;17297;54.022;10.760;2023-03-01T00:36:00;5.13;;;3.22;;
30515;SDS011;17297;54.022;10.760;2023-03-01T00:38:26;4.97;;;3.33;;
30515;SDS011;17297;54.022;10.760;2023-03-01T00:40:52;4.82;;;3.15;;
30515;SDS011;17297;54.022;10.760;2023-03-01T00:43:18;4.70;;;3.40;;
30515;SDS011;17297;54.022;10.760;2023-03-01T00:45:43;6.57;;;4.68;;
30515;SDS011;17297;54.022;10.760;2023-03-01T00:48:09;3.78;;;3.38;;
30515;SDS011;17297;54.022;10.760;2023-03-01T00:50:34;4.75;;;3.67;;
30515;SDS011;17297;54.022;10.760;2023-03-01T00:53:01;4.75;;;3.70;;
30515;SDS011;17297;54.022;10.760;2023-03-01T00:55:27;4.25;;;3.05;;
30515;SDS011;17297;54.022;10.760;2023-03-01T00:57:52;4.43;;;3.72;;
30515;SDS011;17297;54.022;10.760;2023-03-01T01:00:18;5.50;;;4.07;;
30515;SDS011;17297;54.022;10.760;2023-03-01T01:02:46;4.43;;;3.45;;
30515;SDS011;17297;54.022;10.760;2023-03-01T01:05:12;4.90;;;3.53;;
30515;SDS011;17297;54.022;10.760;2023-03-01T01:07:38;6.82;;;4.30;;
30515;SDS011;17297;54.022;10.760;2023-03-01T01:10:04;4.88;;;4.25;;
30515;SDS011;17297;54.022;10.760;2023-03-01T01:12:30;4.30;;;3.90;;
30515;SDS011;17297;54.022;10.760;2023-03-01T01:14:57;5.45;;;3.80;;
30515;SDS011;17297;54.022;10.760;2023-03-01T01:17:22;4.93;;;3.30;;
30515;SDS011;17297;54.022;10.760;2023-03-01T01:19:48;6.82;;;4.18;;
30515;SDS011;17297;54.022;10.760;2023-03-01T01:22:13;3.97;;;3.50;;
30515;SDS011;17297;54.022;10.760;2023-03-01T01:24:39;4.32;;;3.25;;
30515;SDS011;17297;54.022;10.760;2023-03-01T01:27:04;5.90;;;3.92;;
30515;SDS011;17297;54.022;10.760;2023-03-01T01:29:30;5.60;;;4.30;;
30515;SDS011;17297;54.022;10.760;2023-03-01T01:31:56;6.47;;;4.10;;
30515;SDS011;17297;54.022;10.760;2023-03-01T01:34:21;4.75;;;4.18;;
30515;SDS011;17297;54.022;10.760;2023-03-01T01:36:48;4.93;;;3.83;;
30515;SDS011;17297;54.022;10.760;2023-03-01T01:39:14;5.38;;;4.40;;
30515;SDS011;17297;54.022;10.760;2023-03-01T01:41:40;7.50;;;5.22;;
30515;SDS011;17297;54.022;10.760;2023-03-01T01:47:04;6.05;;;3.53;;
30515;SDS011;17297;54.022;10.760;2023-03-01T01:55:07;7.20;;;4.82;;
30515;SDS011;17297;54.022;10.760;2023-03-01T01:57:37;8.63;;;4.70;;
30515;SDS011;17297;54.022;10.760;2023-03-01T02:00:07;5.53;;;4.50;;
30515;SDS011;17297;54.022;10.760;2023-03-01T02:02:45;6.18;;;4.95;;
30515;SDS011;17297;54.022;10.760;2023-03-01T02:06:01;5.78;;;4.32;;
30515;SDS011;17297;54.022;10.760;2023-03-01T02:08:06;6.30;;;4.75;;
30515;SDS011;17297;54.022;10.760;2023-03-01T02:10:33;6.95;;;4.93;;
30515;SDS011;17297;54.022;10.760;2023-03-01T02:13:00;8.88;;;4.65;;
30515;SDS011;17297;54.022;10.760;2023-03-01T02:15:27;6.70;;;4.40;;
30515;SDS011;17297;54.022;10.760;2023-03-01T02:17:57;8.10;;;4.45;;
30515;SDS011;17297;54.022;10.760;2023-03-01T02:20:27;7.35;;;5.03;;
30515;SDS011;17297;54.022;10.760;2023-03-01T02:23:14;7.60;;;5.15;;
30515;SDS011;17297;54.022;10.760;2023-03-01T02:25:44;8.02;;;4.78;;
30515;SDS011;17297;54.022;10.760;2023-03-01T02:28:36;6.95;;;5.13;;
30515;SDS011;17297;54.022;10.760;2023-03-01T02:31:07;9.63;;;6.10;;
30515;SDS011;17297;54.022;10.760;2023-03-01T02:33:52;8.50;;;5.78;;
30515;SDS011;17297;54.022;10.760;2023-03-01T02:36:20;9.23;;;5.30;;
30515;SDS011;17297;54.022;10.760;2023-03-01T02:38:49;8.70;;;6.13;;
30515;SDS011;17297;54.022;10.760;2023-03-01T02:41:19;9.93;;;6.45;;
30515;SDS011;17297;54.022;10.760;2023-03-01T02:43:47;10.80;;;7.38;;
30515;SDS011;17297;54.022;10.760;2023-03-01T02:46:16;10.20;;;6.55;;
30515;SDS011;17297;54.022;10.760;2023-03-01T02:48:46;10.30;;;6.63;;
30515;SDS011;17297;54.022;10.760;2023-03-01T02:56:49;11.68;;;6.80;;
30515;SDS011;17297;54.022;10.760;2023-03-01T02:59:19;9.15;;;5.80;;
30515;SDS011;17297;54.022;10.760;2023-03-01T03:01:47;6.95;;;6.05;;
30515;SDS011;17297;54.022;10.760;2023-03-01T03:04:14;9.18;;;6.07;;
30515;SDS011;17297;54.022;10.760;2023-03-01T03:06:48;8.50;;;6.88;;
30515;SDS011;17297;54.022;10.760;2023-03-01T03:09:16;9.07;;;6.35;;
30515;SDS011;17297;54.022;10.760;2023-03-01T03:11:43;11.65;;;8.10;;
30515;SDS011;17297;54.022;10.760;2023-03-01T03:14:13;10.13;;;6.00;;
30515;SDS011;17297;54.022;10.760;2023-03-01T03:16:44;11.65;;;6.78;;
30515;SDS011;17297;54.022;10.760;2023-03-01T03:19:11;11.15;;;6.93;;
30515;SDS011;17297;54.022;10.760;2023-03-01T03:21:38;8.43;;;5.97;;
30515;SDS011;17297;54.022;10.760;2023-03-01T03:24:04;10.32;;;6.97;;
30515;SDS011;17297;54.022;10.760;2023-03-01T03:26:30;10.25;;;5.72;;
30515;SDS011;17297;54.022;10.760;2023-03-01T03:28:55;13.50;;;8.05;;
30515;SDS011;17297;54.022;10.760;2023-03-01T03:31:22;10.65;;;6.70;;
30515;SDS011;17297;54.022;10.760;2023-03-01T03:33:48;12.38;;;7.25;;
30515;SDS011;17297;54.022;10.760;2023-03-01T03:36:17;10.52;;;7.10;;
30515;SDS011;17297;54.022;10.760;2023-03-01T03:38:44;11.00;;;6.18;;
30515;SDS011;17297;54.022;10.760;2023-03-01T03:41:11;10.50;;;6.72;;
30515;SDS011;17297;54.022;10.760;2023-03-01T03:43:38;11.88;;;7.57;;
30515;SDS011;17297;54.022;10.760;2023-03-01T03:46:05;10.35;;;7.10;;
30515;SDS011;17297;54.022;10.760;2023-03-01T03:48:41;9.57;;;7.28;;
30515;SDS011;17297;54.022;10.760;2023-03-01T03:51:09;10.75;;;7.20;;
30515;SDS011;17297;54.022;10.760;2023-03-01T03:53:39;10.07;;;6.20;;
30515;SDS011;17297;54.022;10.760;2023-03-01T03:56:04;9.57;;;6.75;;
30515;SDS011;17297;54.022;10.760;2023-03-01T03:58:30;11.40;;;6.47;;
30515;SDS011;17297;54.022;10.760;2023-03-01T04:00:56;12.55;;;7.45;;
30515;SDS011;17297;54.022;10.760;2023-03-01T04:03:22;13.57;;;6.90;;
30515;SDS011;17297;54.022;10.760;2023-03-01T04:05:49;11.18;;;7.13;;
30515;SDS011;17297;54.022;10.760;2023-03-01T04:08:16;9.52;;;5.95;;
30515;SDS011;17297;54.022;10.760;2023-03-01T04:10:46;10.82;;;6.57;;
30515;SDS011;17297;54.022;10.760;2023-03-01T04:13:18;8.88;;;6.30;;
30515;SDS011;17297;54.022;10.760;2023-03-01T04:15:46;10.50;;;6.63;;
30515;SDS011;17297;54.022;10.760;2023-03-01T04:18:13;9.75;;;6.15;;
30515;SDS011;17297;54.022;10.760;2023-03-01T04:20:40;12.50;;;6.53;;
30515;SDS011;17297;54.022;10.760;2023-03-01T04:23:14;10.90;;;6.93;;
30515;SDS011;17297;54.022;10.760;2023-03-01T04:25:48;9.90;;;6.53;;
30515;SDS011;17297;54.022;10.760;2023-03-01T04:30:55;8.73;;;6.10;;
30515;SDS011;17297;54.022;10.760;2023-03-01T04:33:22;9.57;;;5.82;;
30515;SDS011;17297;54.022;10.760;2023-03-01T04:35:48;8.23;;;5.43;;
30515;SDS011;17297;54.022;10.760;2023-03-01T04:38:14;8.43;;;4.97;;
30515;SDS011;17297;54.022;10.760;2023-03-01T04:40:41;7.93;;;5.93;;
30515;SDS011;17297;54.022;10.760;2023-03-01T04:43:08;7.88;;;5.90;;
30515;SDS011;17297;54.022;10.760;2023-03-01T04:45:34;7.53;;;5.55;;
30515;SDS011;17297;54.022;10.760;2023-03-01T04:47:59;7.00;;;4.90;;
30515;SDS011;17297;54.022;10.760;2023-03-01T04:50:25;7.22;;;5.35;;
30515;SDS011;17297;54.022;10.760;2023-03-01T04:52:51;8.02;;;5.32;;
30515;SDS011;17297;54.022;10.760;2023-03-01T04:55:17;6.50;;;4.65;;
30515;SDS011;17297;54.022;10.760;2023-03-01T04:57:43;6.45;;;4.60;;
30515;SDS011;17297;54.022;10.760;2023-03-01T05:00:10;6.93;;;4.80;;
30515;SDS011;17297;54.022;10.760;2023-03-01T05:02:55;5.90;;;4.35;;
30515;SDS011;17297;54.022;10.760;2023-03-01T05:05:23;5.97;;;4.45;;
30515;SDS011;17297;54.022;10.760;2023-03-01T05:07:54;6.25;;;4.75;;
30515;SDS011;17297;54.022;10.760;2023-03-01T05:10:22;5.25;;;3.92;;
30515;SDS011;17297;54.022;10.760;2023-03-01T05:12:48;7.07;;;4.95;;
30515;SDS011;17297;54.022;10.760;2023-03-01T05:15:13;6.00;;;4.80;;
30515;SDS011;17297;54.022;10.760;2023-03-01T05:17:39;6.70;;;4.70;;
30515;SDS011;17297;54.022;10.760;2023-03-01T05:20:04;6.22;;;4.45;;
30515;SDS011;17297;54.022;10.760;2023-03-01T05:22:34;8.07;;;5.60;;
30515;SDS011;17297;54.022;10.760;2023-03-01T05:25:00;6.50;;;5.00;;
30515;SDS011;17297;54.022;10.760;2023-03-01T05:27:26;9.05;;;5.60;;
30515;SDS011;17297;54.022;10.760;2023-03-01T05:29:52;8.63;;;5.20;;
30515;SDS011;17297;54.022;10.760;2023-03-01T05:32:18;7.95;;;5.05;;
30515;SDS011;17297;54.022;10.760;2023-03-01T05:34:43;7.05;;;4.35;;
30515;SDS011;17297;54.022;10.760;2023-03-01T05:37:11;5.93;;;4.40;;
30515;SDS011;17297;54.022;10.760;2023-03-01T05:39:38;7.03;;;4.70;;
30515;SDS011;17297;54.022;10.760;2023-03-01T05:42:04;8.27;;;5.28;;
30515;SDS011;17297;54.022;10.760;2023-03-01T05:44:29;6.03;;;4.47;;
30515;SDS011;17297;54.022;10.760;2023-03-01T05:46:55;7.15;;;4.78;;
30515;SDS011;17297;54.022;10.760;2023-03-01T05:49:21;6.75;;;5.35;;
30515;SDS011;17297;54.022;10.760;2023-03-01T05:51:52;6.35;;;4.70;;
30515;SDS011;17297;54.022;10.760;2023-03-01T05:54:18;7.60;;;5.28;;
30515;SDS011;17297;54.022;10.760;2023-03-01T05:56:45;6.55;;;4.93;;
30515;SDS011;17297;54.022;10.760;2023-03-01T05:59:12;7.35;;;5.82;;
30515;SDS011;17297;54.022;10.760;2023-03-01T06:01:38;7.05;;;5.22;;
30515;SDS011;17297;54.022;10.760;2023-03-01T06:04:04;6.38;;;4.47;;
30515;SDS011;17297;54.022;10.760;2023-03-01T06:06:33;5.88;;;4.40;;
30515;SDS011;17297;54.022;10.760;2023-03-01T06:09:00;6.90;;;4.72;;
30515;SDS011;17297;54.022;10.760;2023-03-01T06:11:25;5.65;;;4.00;;
30515;SDS011;17297;54.022;10.760;2023-03-01T06:13:51;7.03;;;4.13;;
30515;SDS011;17297;54.022;10.760;2023-03-01T06:16:16;6.43;;;5.70;;
30515;SDS011;17297;54.022;10.760;2023-03-01T06:18:42;6.00;;;4.55;;
30515;SDS011;17297;54.022;10.760;2023-03-01T06:21:08;5.00;;;4.15;;
30515;SDS011;17297;54.022;10.760;2023-03-01T06:23:34;5.85;;;3.88;;
30515;SDS011;17297;54.022;10.760;2023-03-01T06:25:59;7.20;;;4.63;;
30515;SDS011;17297;54.022;10.760;2023-03-01T06:28:25;6.50;;;4.55;;
30515;SDS011;17297;54.022;10.760;2023-03-01T06:30:51;6.05;;;4.05;;
30515;SDS011;17297;54.022;10.760;2023-03-01T06:33:17;6.25;;;4.22;;
30515;SDS011;17297;54.022;10.760;2023-03-01T06:35:47;6.72;;;4.82;;
30515;SDS011;17297;54.022;10.760;2023-03-01T06:38:13;6.68;;;3.90;;
30515;SDS011;17297;54.022;10.760;2023-03-01T06:40:40;5.80;;;3.80;;
30515;SDS011;17297;54.022;10.760;2023-03-01T06:43:06;6.20;;;4.65;;
30515;SDS011;17297;54.022;10.760;2023-03-01T06:45:32;6.90;;;5.43;;
30515;SDS011;17297;54.022;10.760;2023-03-01T06:48:05;7.10;;;4.60;;
30515;SDS011;17297;54.022;10.760;2023-03-01T06:50:32;8.07;;;5.30;;
30515;SDS011;17297;54.022;10.760;2023-03-01T06:52:58;6.43;;;4.72;;
30515;SDS011;17297;54.022;10.760;2023-03-01T06:55:25;8.23;;;5.20;;
30515;SDS011;17297;54.022;10.760;2023-03-01T06:57:54;6.65;;;5.13;;
30515;SDS011;17297;54.022;10.760;2023-03-01T07:00:21;9.05;;;6.03;;
30515;SDS011;17297;54.022;10.760;2023-03-01T07:02:47;7.65;;;4.78;;
30515;SDS011;17297;54.022;10.760;2023-03-01T07:05:12;7.00;;;4.82;;
30515;SDS011;17297;54.022;10.760;2023-03-01T07:07:38;7.13;;;4.85;;
30515;SDS011;17297;54.022;10.760;2023-03-01T07:10:04;7.72;;;5.07;;
30515;SDS011;17297;54.022;10.760;2023-03-01T07:12:29;8.63;;;5.35;;
30515;SDS011;17297;54.022;10.760;2023-03-01T07:14:55;7.15;;;4.57;;
30515;SDS011;17297;54.022;10.760;2023-03-01T07:17:20;8.13;;;5.13;;
30515;SDS011;17297;54.022;10.760;2023-03-01T07:19:46;7.10;;;4.50;;
30515;SDS011;17297;54.022;10.760;2023-03-01T07:22:11;7.65;;;5.10;;
30515;SDS011;17297;54.022;10.760;2023-03-01T07:24:37;6.07;;;4.80;;
30515;SDS011;17297;54.022;10.760;2023-03-01T07:27:02;7.90;;;6.20;;
30515;SDS011;17297;54.022;10.760;2023-03-01T07:29:28;6.18;;;4.70;;
30515;SDS011;17297;54.022;10.760;2023-03-01T07:31:54;7.22;;;4.65;;
30515;SDS011;17297;54.022;10.760;2023-03-01T07:34:20;10.20;;;6.00;;
30515;SDS011;17297;54.022;10.760;2023-03-01T07:36:45;31.50;;;16.73;;
30515;SDS011;17297;54.022;10.760;2023-03-01T07:39:11;51.08;;;22.63;;
30515;SDS011;17297;54.022;10.760;2023-03-01T07:41:36;69.88;;;28.17;;
30515;SDS011;17297;54.022;10.760;2023-03-01T07:44:02;64.70;;;29.65;;
30515;SDS011;17297;54.022;10.760;2023-03-01T07:46:27;59.25;;;28.23;;
30515;SDS011;17297;54.022;10.760;2023-03-01T07:48:53;64.70;;;30.30;;
30515;SDS011;17297;54.022;10.760;2023-03-01T07:51:18;62.20;;;29.17;;
30515;SDS011;17297;54.022;10.760;2023-03-01T07:53:47;51.65;;;24.10;;
30515;SDS011;17297;54.022;10.760;2023-03-01T07:56:13;40.88;;;19.02;;
30515;SDS011;17297;54.022;10.760;2023-03-01T07:58:41;28.30;;;15.15;;
30515;SDS011;17297;54.022;10.760;2023-03-01T08:01:08;19.88;;;10.45;;
30515;SDS011;17297;54.022;10.760;2023-03-01T08:03:36;14.93;;;8.38;;
30515;SDS011;17297;54.022;10.760;2023-03-01T08:06:02;11.88;;;7.82;;
30515;SDS011;17297;54.022;10.760;2023-03-01T08:08:28;9.95;;;7.35;;
30515;SDS011;17297;54.022;10.760;2023-03-01T08:10:57;9.90;;;6.00;;
30515;SDS011;17297;54.022;10.760;2023-03-01T08:13:24;7.72;;;4.95;;
30515;SDS011;17297;54.022;10.760;2023-03-01T08:15:50;7.13;;;4.47;;
30515;SDS011;17297;54.022;10.760;2023-03-01T08:18:16;6.05;;;4.78;;
30515;SDS011;17297;54.022;10.760;2023-03-01T08:20:43;5.82;;;4.53;;
30515;SDS011;17297;54.022;10.760;2023-03-01T08:23:09;6.15;;;4.68;;
30515;SDS011;17297;54.022;10.760;2023-03-01T08:25:35;7.38;;;4.30;;
30515;SDS011;17297;54.022;10.760;2023-03-01T08:28:00;5.88;;;4.10;;
30515;SDS011;17297;54.022;10.760;2023-03-01T08:30:26;6.20;;;3.90;;
30515;SDS011;17297;54.022;10.760;2023-03-01T08:32:51;5.07;;;4.32;;
30515;SDS011;17297;54.022;10.760;2023-03-01T08:35:17;5.28;;;4.10;;
30515;SDS011;17297;54.022;10.760;2023-03-01T08:37:44;5.95;;;3.80;;
30515;SDS011;17297;54.022;10.760;2023-03-01T08:40:09;5.78;;;4.18;;
30515;SDS011;17297;54.022;10.760;2023-03-01T08:42:36;4.70;;;3.75;;
30515;SDS011;17297;54.022;10.760;2023-03-01T08:45:03;5.00;;;3.78;;
30515;SDS011;17297;54.022;10.760;2023-03-01T08:47:28;4.13;;;3.70;;
30515;SDS011;17297;54.022;10.760;2023-03-01T08:49:54;4.68;;;3.53;;
30515;SDS011;17297;54.022;10.760;2023-03-01T08:52:20;5.35;;;3.50;;
30515;SDS011;17297;54.022;10.760;2023-03-01T08:54:47;4.55;;;3.55;;
30515;SDS011;17297;54.022;10.760;2023-03-01T08:57:13;4.97;;;3.60;;
30515;SDS011;17297;54.022;10.760;2023-03-01T08:59:38;6.18;;;4.38;;
30515;SDS011;17297;54.022;10.760;2023-03-01T09:02:10;4.47;;;3.85;;
30515;SDS011;17297;54.022;10.760;2023-03-01T09:04:38;4.88;;;3.63;;
30515;SDS011;17297;54.022;10.760;2023-03-01T09:07:04;4.30;;;3.80;;
30515;SDS011;17297;54.022;10.760;2023-03-01T09:09:29;4.68;;;3.78;;
30515;SDS011;17297;54.022;10.760;2023-03-01T09:11:55;5.07;;;3.63;;
30515;SDS011;17297;54.022;10.760;2023-03-01T09:14:20;5.57;;;3.63;;
30515;SDS011;17297;54.022;10.760;2023-03-01T09:16:46;4.70;;;3.63;;
30515;SDS011;17297;54.022;10.760;2023-03-01T09:19:12;3.97;;;3.42;;
30515;SDS011;17297;54.022;10.760;2023-03-01T09:21:38;4.18;;;3.53;;
30515;SDS011;17297;54.022;10.760;2023-03-01T09:24:03;4.93;;;3.70;;
30515;SDS011;17297;54.022;10.760;2023-03-01T09:26:29;5.32;;;3.70;;
30515;SDS011;17297;54.022;10.760;2023-03-01T09:28:55;4.35;;;3.95;;
30515;SDS011;17297;54.022;10.760;2023-03-01T09:31:22;4.82;;;3.83;;
30515;SDS011;17297;54.022;10.760;2023-03-01T09:33:50;4.53;;;3.47;;
30515;SDS011;17297;54.022;10.760;2023-03-01T09:36:18;4.20;;;3.65;;
30515;SDS011;17297;54.022;10.760;2023-03-01T09:38:46;4.93;;;3.97;;
30515;SDS011;17297;54.022;10.760;2023-03-01T09:43:44;3.63;;;3.03;;
30515;SDS011;17297;54.022;10.760;2023-03-01T09:46:13;5.43;;;3.78;;
30515;SDS011;17297;54.022;10.760;2023-03-01T09:48:57;5.10;;;4.07;;
30515;SDS011;17297;54.022;10.760;2023-03-01T09:51:32;4.53;;;3.45;;
30515;SDS011;17297;54.022;10.760;2023-03-01T09:54:01;4.45;;;3.55;;
30515;SDS011;17297;54.022;10.760;2023-03-01T10:04:34;4.43;;;3.45;;
30515;SDS011;17297;54.022;10.760;2023-03-01T10:09:37;5.25;;;3.83;;
30515;SDS011;17297;54.022;10.760;2023-03-01T10:12:12;4.63;;;3.38;;
30515;SDS011;17297;54.022;10.760;2023-03-01T10:14:48;4.70;;;3.78;;
30515;SDS011;17297;54.022;10.760;2023-03-01T10:22:48;4.85;;;3.10;;
30515;SDS011;17297;54.022;10.760;2023-03-01T10:25:21;4.30;;;3.05;;
30515;SDS011;17297;54.022;10.760;2023-03-01T10:28:16;5.30;;;3.70;;
30515;SDS011;17297;54.022;10.760;2023-03-01T10:30:49;4.68;;;3.60;;
30515;SDS011;17297;54.022;10.760;2023-03-01T10:33:18;4.03;;;3.55;;
30515;SDS011;17297;54.022;10.760;2023-03-01T10:35:49;4.55;;;3.05;;
30515;SDS011;17297;54.022;10.760;2023-03-01T10:38:15;4.38;;;3.22;;
30515;SDS011;17297;54.022;10.760;2023-03-01T10:40:55;4.72;;;3.85;;
30515;SDS011;17297;54.022;10.760;2023-03-01T10:43:26;4.43;;;3.60;;
30515;SDS011;17297;54.022;10.760;2023-03-01T10:46:18;4.53;;;3.75;;
30515;SDS011;17297;54.022;10.760;2023-03-01T10:49:06;4.88;;;3.58;;
30515;SDS011;17297;54.022;10.760;2023-03-01T10:51:31;4.68;;;3.33;;
30515;SDS011;17297;54.022;10.760;2023-03-01T10:53:57;4.75;;;3.92;;
30515;SDS011;17297;54.022;10.760;2023-03-01T10:56:23;5.22;;;4.13;;
30515;SDS011;17297;54.022;10.760;2023-03-01T11:01:28;4.53;;;3.70;;
30515;SDS011;17297;54.022;10.760;2023-03-01T11:06:39;6.97;;;4.97;;
30515;SDS011;17297;54.022;10.760;2023-03-01T11:11:41;5.95;;;4.90;;
30515;SDS011;17297;54.022;10.760;2023-03-01T11:14:15;5.78;;;4.03;;
30515;SDS011;17297;54.022;10.760;2023-03-01T11:16:47;7.85;;;4.95;;
30515;SDS011;17297;54.022;10.760;2023-03-01T11:19:15;4.55;;;3.42;;
30515;SDS011;17297;54.022;10.760;2023-03-01T11:21:57;6.93;;;4.30;;
30515;SDS011;17297;54.022;10.760;2023-03-01T11:24:49;5.75;;;4.22;;
30515;SDS011;17297;54.022;10.760;2023-03-01T11:35:32;4.80;;;3.33;;
30515;SDS011;17297;54.022;10.760;2023-03-01T11:40:41;4.78;;;3.83;;
30515;SDS011;17297;54.022;10.760;2023-03-01T11:43:17;5.15;;;3.58;;
30515;SDS011;17297;54.022;10.760;2023-03-01T12:06:12;5.78;;;3.58;;
30515;SDS011;17297;54.022;10.760;2023-03-01T12:08:52;5.80;;;4.07;;
30515;SDS011;17297;54.022;10.760;2023-03-01T12:16:53;6.25;;;4.65;;
30515;SDS011;17297;54.022;10.760;2023-03-01T12:24:52;6.03;;;4.53;;
30515;SDS011;17297;54.022;10.760;2023-03-01T12:30:33;5.97;;;4.45;;
30515;SDS011;17297;54.022;10.760;2023-03-01T12:44:52;4.97;;;3.75;;
30515;SDS011;17297;54.022;10.760;2023-03-01T12:49:28;6.32;;;4.72;;
30515;SDS011;17297;54.022;10.760;2023-03-01T12:54:51;7.40;;;5.43;;
30515;SDS011;17297;54.022;10.760;2023-03-01T13:02:59;6.35;;;4.22;;
30515;SDS011;17297;54.022;10.760;2023-03-01T13:08:39;6.35;;;4.85;;
30515;SDS011;17297;54.022;10.760;2023-03-01T13:11:19;6.15;;;4.03;;
30515;SDS011;17297;54.022;10.760;2023-03-01T13:13:47;6.13;;;4.30;;
30515;SDS011;17297;54.022;10.760;2023-03-01T13:19:08;6.25;;;5.00;;
30515;SDS011;17297;54.022;10.760;2023-03-01T13:21:39;7.70;;;4.83;;
30515;SDS011;17297;54.022;10.760;2023-03-01T13:24:22;5.88;;;4.47;;
30515;SDS011;17297;54.022;10.760;2023-03-01T13:29:51;5.90;;;5.30;;
30515;SDS011;17297;54.022;10.760;2023-03-01T13:35:03;5.45;;;4.20;;
30515;SDS011;17297;54.022;10.760;2023-03-01T13:37:51;4.72;;;3.25;;
30515;SDS011;17297;54.022;10.760;2023-03-01T13:42:53;5.55;;;4.20;;
30515;SDS011;17297;54.022;10.760;2023-03-01T13:50:50;5.35;;;4.05;;
30515;SDS011;17297;54.022;10.760;2023-03-01T13:53:20;6.65;;;4.10;;
30515;SDS011;17297;54.022;10.760;2023-03-01T13:55:55;5.18;;;4.32;;
30515;SDS011;17297;54.022;10.760;2023-03-01T13:58:25;4.53;;;3.67;;
30515;SDS011;17297;54.022;10.760;2023-03-01T14:03:25;3.33;;;2.95;;
30515;SDS011;17297;54.022;10.760;2023-03-01T14:06:12;6.93;;;4.30;;
30515;SDS011;17297;54.022;10.760;2023-03-01T14:08:40;5.28;;;3.60;;
30515;SDS011;17297;54.022;10.760;2023-03-01T14:20:02;5.22;;;3.58;;
30515;SDS011;17297;54.022;10.760;2023-03-01T14:22:36;5.43;;;4.63;;
30515;SDS011;17297;54.022;10.760;2023-03-01T14:25:05;5.63;;;3.95;;
30515;SDS011;17297;54.022;10.760;2023-03-01T14:27:42;5.15;;;4.20;;
30515;SDS011;17297;54.022;10.760;2023-03-01T14:30:12;4.55;;;3.60;;
30515;SDS011;17297;54.022;10.760;2023-03-01T14:32:51;5.78;;;4.57;;
30515;SDS011;17297;54.022;10.760;2023-03-01T14:35:26;5.53;;;4.07;;
30515;SDS011;17297;54.022;10.760;2023-03-01T14:37:59;7.75;;;5.47;;
30515;SDS011;17297;54.022;10.760;2023-03-01T14:40:29;8.70;;;6.80;;
30515;SDS011;17297;54.022;10.760;2023-03-01T14:43:00;10.33;;;6.77;;
30515;SDS011;17297;54.022;10.760;2023-03-01T14:45:28;10.82;;;7.18;;
30515;SDS011;17297;54.022;10.760;2023-03-01T14:47:58;10.38;;;7.45;;
30515;SDS011;17297;54.022;10.760;2023-03-01T14:50:27;9.65;;;7.13;;
30515;SDS011;17297;54.022;10.760;2023-03-01T14:52:58;9.40;;;6.85;;
30515;SDS011;17297;54.022;10.760;2023-03-01T14:55:29;10.13;;;6.80;;
30515;SDS011;17297;54.022;10.760;2023-03-01T14:57:55;11.93;;;6.70;;
30515;SDS011;17297;54.022;10.760;2023-03-01T15:00:29;9.73;;;6.32;;
30515;SDS011;17297;54.022;10.760;2023-03-01T15:02:58;8.82;;;5.78;;
30515;SDS011;17297;54.022;10.760;2023-03-01T15:07:56;9.75;;;6.30;;
30515;SDS011;17297;54.022;10.760;2023-03-01T15:10:27;7.85;;;5.90;;
30515;SDS011;17297;54.022;10.760;2023-03-01T15:12:55;10.07;;;6.25;;
30515;SDS011;17297;54.022;10.760;2023-03-01T15:15:35;6.75;;;4.78;;
30515;SDS011;17297;54.022;10.760;2023-03-01T15:18:22;7.15;;;5.13;;
30515;SDS011;17297;54.022;10.760;2023-03-01T15:20:51;7.43;;;4.88;;
30515;SDS011;17297;54.022;10.760;2023-03-01T15:23:19;6.15;;;4.45;;
30515;SDS011;17297;54.022;10.760;2023-03-01T15:25:55;6.03;;;4.82;;
30515;SDS011;17297;54.022;10.760;2023-03-01T15:28:43;9.15;;;5.65;;
30515;SDS011;17297;54.022;10.760;2023-03-01T15:31:19;9.40;;;5.32;;
30515;SDS011;17297;54.022;10.760;2023-03-01T15:33:47;5.45;;;4.40;;
30515;SDS011;17297;54.022;10.760;2023-03-01T15:36:30;7.75;;;4.43;;
30515;SDS011;17297;54.022;10.760;2023-03-01T15:42:47;7.57;;;5.10;;
30515;SDS011;17297;54.022;10.760;2023-03-01T15:45:06;7.70;;;5.28;;
30515;SDS011;17297;54.022;10.760;2023-03-01T15:47:53;7.45;;;4.85;;
30515;SDS011;17297;54.022;10.760;2023-03-01T15:50:35;7.60;;;4.70;;
30515;SDS011;17297;54.022;10.760;2023-03-01T15:53:09;6.40;;;4.47;;
30515;SDS011;17297;54.022;10.760;2023-03-01T15:55:37;6.25;;;4.05;;
30515;SDS011;17297;54.022;10.760;2023-03-01T15:58:03;5.63;;;4.15;;
30515;SDS011;17297;54.022;10.760;2023-03-01T16:00:59;6.75;;;3.90;;
30515;SDS011;17297;54.022;10.760;2023-03-01T16:03:24;6.35;;;4.03;;
30515;SDS011;17297;54.022;10.760;2023-03-01T16:05:50;6.72;;;4.00;;
30515;SDS011;17297;54.022;10.760;2023-03-01T16:08:16;6.53;;;4.05;;
30515;SDS011;17297;54.022;10.760;2023-03-01T16:10:43;7.03;;;4.38;;
30515;SDS011;17297;54.022;10.760;2023-03-01T16:13:10;6.95;;;4.70;;
30515;SDS011;17297;54.022;10.760;2023-03-01T16:15:36;5.85;;;3.45;;
30515;SDS011;17297;54.022;10.760;2023-03-01T16:18:03;6.47;;;4.00;;
30515;SDS011;17297;54.022;10.760;2023-03-01T16:20:30;6.35;;;4.15;;
30515;SDS011;17297;54.022;10.760;2023-03-01T16:23:00;7.32;;;4.25;;
30515;SDS011;17297;54.022;10.760;2023-03-01T16:25:28;6.20;;;3.85;;
30515;SDS011;17297;54.022;10.760;2023-03-01T16:27:54;4.97;;;3.65;;
30515;SDS011;17297;54.022;10.760;2023-03-01T16:30:21;5.82;;;4.05;;
30515;SDS011;17297;54.022;10.760;2023-03-01T16:32:48;8.35;;;4.57;;
30515;SDS011;17297;54.022;10.760;2023-03-01T16:35:16;5.65;;;3.65;;
30515;SDS011;17297;54.022;10.760;2023-03-01T16:37:44;6.88;;;4.85;;
30515;SDS011;17297;54.022;10.760;2023-03-01T16:40:15;4.65;;;3.65;;
30515;SDS011;17297;54.022;10.760;2023-03-01T16:42:44;5.68;;;4.03;;
30515;SDS011;17297;54.022;10.760;2023-03-01T16:45:09;6.07;;;4.28;;
30515;SDS011;17297;54.022;10.760;2023-03-01T16:47:35;7.75;;;5.00;;
30515;SDS011;17297;54.022;10.760;2023-03-01T16:50:01;7.05;;;5.03;;
30515;SDS011;17297;54.022;10.760;2023-03-01T16:52:26;5.45;;;3.45;;
30515;SDS011;17297;54.022;10.760;2023-03-01T16:54:52;6.60;;;3.97;;
30515;SDS011;17297;54.022;10.760;2023-03-01T16:57:18;6.40;;;3.75;;
30515;SDS011;17297;54.022;10.760;2023-03-01T16:59:44;4.97;;;3.67;;
30515;SDS011;17297;54.022;10.760;2023-03-01T17:02:10;6.00;;;4.00;;
30515;SDS011;17297;54.022;10.760;2023-03-01T17:04:38;7.90;;;4.63;;
30515;SDS011;17297;54.022;10.760;2023-03-01T17:07:04;9.52;;;5.13;;
30515;SDS011;17297;54.022;10.760;2023-03-01T17:09:29;6.78;;;4.68;;
30515;SDS011;17297;54.022;10.760;2023-03-01T17:11:55;6.28;;;3.88;;